Have a Safe July 4th! 

Flight Track Log - Related Links

Times and Time Zones

All times are in EDT time to prevent confusion due to time zone crossing. See the SLI2119 flight status page for this flight to view local times or setup timezone preferences in your user account.

Time Position Orientation Groundspeed Altitude Reporting Facility
EDT Latitude Longitude Course Direction KTS MPH feet Rate Location/Type
Thu 08:37:00 PM 23.7886 -109.7605 117° Southeast  Level Estimated
Thu 08:38:00 PM 23.7410 -109.6604 117° Southeast  Level Estimated
Thu 08:39:00 PM 23.6934 -109.5604 117° Southeast  Level Estimated
Thu 08:40:00 PM 23.6457 -109.4604 118° Southeast  Level Estimated
Thu 08:41:00 PM 23.5979 -109.3606 118° Southeast  Level Estimated
Thu 08:42:00 PM 23.5501 -109.2608 118° Southeast  Level Estimated
Thu 08:43:00 PM 23.5022 -109.1611 118° Southeast  Level Estimated
Thu 08:44:00 PM 23.4542 -109.0614 118° Southeast  Level Estimated
Thu 08:45:00 PM 23.4062 -108.9619 118° Southeast  Level Estimated
Thu 08:46:00 PM 23.3581 -108.8624 118° Southeast  Level Estimated
Thu 08:47:00 PM 23.3100 -108.7629 118° Southeast  Level Estimated
Thu 08:48:00 PM 23.2617 -108.6636 118° Southeast  Level Estimated
Thu 08:49:00 PM 23.2135 -108.5643 118° Southeast  Level Estimated
Thu 08:50:00 PM 23.1651 -108.4651 118° Southeast  Level Estimated
Thu 08:51:00 PM 23.1167 -108.3660 118° Southeast  Level Estimated
Thu 08:52:00 PM 23.0683 -108.2669 118° Southeast  Level Estimated
Thu 08:53:00 PM 23.0198 -108.1679 118° Southeast  Level Estimated
Thu 08:54:00 PM 22.9712 -108.0690 118° Southeast  Level Estimated
Thu 08:55:00 PM 22.9225 -107.9701 118° Southeast  Level Estimated
Thu 08:56:00 PM 22.8738 -107.8714 118° Southeast  Level Estimated
Thu 08:57:00 PM 22.8251 -107.7727 118° Southeast  Level Estimated
Thu 08:58:00 PM 22.7762 -107.6740 118° Southeast  Level Estimated
Thu 08:59:00 PM 22.7273 -107.5754 118° Southeast  Level Estimated
Thu 09:00:00 PM 22.6784 -107.4769 118° Southeast  Level Estimated
Thu 09:01:00 PM 22.6294 -107.3785 118° Southeast  Level Estimated
Thu 09:02:00 PM 22.5803 -107.2802 118° Southeast  Level Estimated
Thu 09:03:00 PM 22.5312 -107.1819 118° Southeast  Level Estimated
Thu 09:04:00 PM 22.4820 -107.0836 118° Southeast  Level Estimated
Thu 09:05:00 PM 22.4327 -106.9855 118° Southeast  Level Estimated
Thu 09:06:00 PM 22.3834 -106.8874 119° Southeast  Level Estimated
Thu 09:07:00 PM 22.3341 -106.7894 119° Southeast  Level Estimated
Thu 09:08:00 PM 22.2846 -106.6915 119° Southeast  Level Estimated
Thu 09:09:00 PM 22.2352 -106.5936 119° Southeast  Level Estimated
Thu 09:10:00 PM 22.1856 -106.4958 119° Southeast  Level Estimated
Thu 09:11:00 PM 22.1360 -106.3981 119° Southeast  Level Estimated
Thu 09:12:00 PM 22.0864 -106.3004 119° Southeast  Level Estimated
Thu 09:13:00 PM 22.0366 -106.2028 119° Southeast  Level Estimated
Thu 09:14:00 PM 21.9869 -106.1053 119° Southeast  Level Estimated
Thu 09:15:00 PM 21.9370 -106.0078 119° Southeast  Level Estimated
Thu 09:16:00 PM 21.8871 -105.9104 119° Southeast  Level Estimated
Thu 09:17:00 PM 21.8372 -105.8131 119° Southeast  Level Estimated
Thu 09:18:00 PM 21.7872 -105.7159 119° Southeast  Level Estimated
Thu 09:19:00 PM 21.7371 -105.6187 119° Southeast  Level Estimated
Thu 09:20:00 PM 21.6870 -105.5216 119° Southeast  Level Estimated
Thu 09:21:00 PM 21.6369 -105.4245 119° Southeast  Level Estimated
Thu 09:22:00 PM 21.5866 -105.3275 119° Southeast  Level Estimated
Thu 09:23:00 PM 21.5363 -105.2306 119° Southeast  Level Estimated
Thu 09:24:00 PM 21.4860 -105.1338 119° Southeast  Level Estimated
Thu 09:25:00 PM 21.4356 -105.0370 119° Southeast  Level Estimated
Thu 09:26:00 PM 21.3851 -104.9403 119° Southeast  Level Estimated
Thu 09:27:00 PM 21.3346 -104.8436 119° Southeast  Level Estimated
Thu 09:28:00 PM 21.2841 -104.7470 119° Southeast  Level Estimated
Thu 09:29:00 PM 21.2334 -104.6505 119° Southeast  Level Estimated
Thu 09:30:00 PM 21.1828 -104.5541 119° Southeast  Level Estimated
Thu 09:31:00 PM 21.1320 -104.4577 119° Southeast  Level Estimated
Thu 09:32:00 PM 21.0813 -104.3614 119° Southeast  Level Estimated
Thu 09:33:00 PM 21.0304 -104.2651 119° Southeast  Level Estimated
Thu 09:34:00 PM 20.9795 -104.1689 120° Southeast  Level Estimated
Thu 09:35:00 PM 20.9286 -104.0728 120° Southeast  Level Estimated
Thu 09:36:00 PM 20.8776 -103.9768 120° Southeast  Level Estimated
Thu 09:37:00 PM 20.8265 -103.8808 120° Southeast  Level Estimated
Thu 09:38:00 PM 20.7754 -103.7849 120° Southeast  Level Estimated
Thu 09:39:00 PM 20.7243 -103.6890 120° Southeast  Level Estimated
Thu 09:40:00 PM 20.6731 -103.5932 120° Southeast  Level Estimated
Thu 09:41:00 PM 20.6218 -103.4975 120° Southeast  Level Estimated
Thu 09:42:00 PM 20.5705 -103.4018 120° Southeast  Level Estimated
Thu 09:43:00 PM 20.5218 -103.3112 120° Southeast  Level Estimated
Thu 09:44:00 PM 20.5218 -103.3112 90° East  Level Estimated
Thu 09:45:00 PM 20.5218 -103.3112 90° East  Level Estimated
Thu 09:46:00 PM 20.5218 -103.3112 90° East  Level Estimated
Thu 09:47:00 PM 20.5218 -103.3112 90° East  Level Estimated
Thu 09:48:00 PM 20.5218 -103.3112 90° East  Level Estimated
Thu 09:49:00 PM 20.5218 -103.3112 90° East  Level Estimated
Thu 09:50:00 PM 20.5218 -103.3112 90° East  Level Estimated
Thu 09:51:00 PM 20.5218 -103.3112 90° East  Level Estimated

Login

Don't have an account? Register now (free) for customized features, flight alerts, and more!